Home   Weather   Australia   Kalgoorlie   Past weeks
Flag for Australia

Past Weather in Kalgoorlie, Western Australia, Australia — Yesterday and Last 2 Weeks

Currently: 61 °F. Clear. (Weather station: Kalgoorlie Boulder Amo, Australia). See more current weather

Past Weather in Kalgoorlie — Graph

°F

Kalgoorlie Temperature Yesterday

Maximum temperature yesterday: 73 °F (at 2:00 pm)
Minimum temperature yesterday: 46 °F (at 5:30 am)
Average temperature yesterday: 61 °F

High & Low Weather Summary for the Past Weeks

 TemperatureHumidityPressure
High79 °F (Sep 18, 2:00 pm)87% (Sep 15, 6:30 am)30.30 "Hg (Sep 15, 6:30 am)
Low39 °F (Sep 17, 6:00 am)14% (Sep 17, 4:00 pm)29.71 "Hg (Sep 13, 4:30 am)
Average60 °F52%30.03 "Hg
* Reported Sep 12 11:00 pm — Sep 27 11:30 pm, Kalgoorlie. Weather by CustomWeather, © 2022

Note: Actual official high and low records may vary slightly from our data, if they occured in-between our weather recording intervals... More about our weather records

Kalgoorlie Weather History for the Previous 24 Hours

Scroll right to see more
 ConditionsComfort  
Time TempWeatherWind HumidityBarometerVisibility
11:30 pm
Tue, Sep 27
63 °FClear.9 mph34%30.12 "HgN/A
10:30 pm64 °FClear.10 mph32%30.12 "HgN/A
10:00 pm66 °FClear.12 mph32%30.12 "HgN/A
9:30 pm61 °FClear.6 mph39%30.12 "HgN/A
9:00 pm63 °FClear.6 mph37%30.12 "HgN/A
8:30 pm61 °FClear.6 mph39%30.12 "HgN/A
8:00 pm63 °FClear.7 mph37%30.12 "HgN/A
7:00 pm66 °FClear.8 mph32%30.12 "HgN/A
6:30 pm68 °FClear.8 mph30%30.12 "HgN/A
6:00 pm70 °FClear.9 mph29%30.12 "HgN/A
5:30 pm72 °FSunny.8 mph27%30.12 "HgN/A
5:00 pm73 °FSunny.8 mph25%30.09 "HgN/A
4:00 pm73 °FSunny.10 mph25%30.09 "HgN/A
3:30 pm73 °FSunny.8 mph27%30.09 "HgN/A
3:00 pm73 °FSunny.6 mph27%30.12 "HgN/A
2:30 pm73 °FSunny.7 mph29%30.12 "HgN/A
2:00 pm73 °FSunny.6 mph29%30.12 "HgN/A
1:00 pm72 °FSunny.8 mph33%30.15 "HgN/A
12:30 pm70 °FSunny.7 mph38%30.18 "HgN/A
12:00 pm70 °FSunny.12 mph35%30.18 "HgN/A
11:30 am68 °FSunny.8 mph43%30.21 "HgN/A
11:00 am66 °FSunny.6 mph43%30.24 "HgN/A
10:30 am64 °FSunny.5 mph49%30.24 "HgN/A
10:00 am64 °FSunny.7 mph49%30.24 "HgN/A
9:30 am63 °FSunny.7 mph52%30.27 "HgN/A
9:00 am61 °FSunny.8 mph55%30.27 "HgN/A
7:30 am55 °FSunny.10 mph67%30.27 "HgN/A
7:00 am52 °FSunny.9 mph77%30.27 "HgN/A
6:30 am50 °FSunny.9 mph76%30.27 "HgN/A
6:00 am48 °FSunny.8 mph82%30.27 "HgN/A
5:30 am46 °FClear.7 mph82%30.24 "HgN/A
5:00 am48 °FClear.8 mph76%30.24 "HgN/A
4:30 am48 °FClear.6 mph76%30.24 "HgN/A
4:00 am50 °FClear.8 mph71%30.21 "HgN/A
3:30 am50 °FClear.6 mph71%30.21 "HgN/A
3:00 am52 °FClear.6 mph67%30.21 "HgN/A
2:30 am52 °FClear.8 mph72%30.21 "HgN/A
2:00 am54 °FClear.8 mph63%30.21 "HgN/A
1:30 am54 °FClear.8 mph63%30.21 "HgN/A
1:00 am54 °FClear.8 mph63%30.21 "HgN/A
Weather by CustomWeather, © 2022

See weather overview